HFM303 CYYC-PANC
Flight info
| Callsign | HFM303 |
|---|---|
| Flight time | N/A |
| Altitude | 40000 |
| Route | IPSIT Q810 SETGA DCT STAHL DCT MITOM DCT DEEJA NCA10 YAK DCT JOH ELLAM5 |
| Aircraft | A343/H-SDE2E3FGHIJ4J5M1RWXY/LB1D1 |
Departure
| Time | 2026-04-28 23:51 |
|---|---|
| Airport | Calgary International Airport (CYYC) |
Arrival
| Time | N/A |
|---|---|
| Airport | Ted Stevens Anchorage International Airport (PANC) |
| Time | Latitude | Longitude | Altitude | Speed | Heading |
|---|---|---|---|---|---|
| 2026-04-28 22:38 | 51.13439 | -114.02621 | 3544 ft | 0 kts | 179° |
| 2026-04-28 23:35 | 51.13438 | -114.02621 | 3544 ft | 0 kts | 176° |
| 2026-04-28 23:35 | 51.13433 | -114.02612 | 3539 ft | 2 kts | 143° |
| 2026-04-28 23:36 | 51.13421 | -114.02564 | 3538 ft | 7 kts | 103° |
| 2026-04-28 23:36 | 51.13419 | -114.02554 | 3538 ft | 0 kts | 103° |
| 2026-04-28 23:37 | 51.13414 | -114.02516 | 3540 ft | 7 kts | 102° |
| 2026-04-28 23:38 | 51.13384 | -114.02463 | 3544 ft | 5 kts | 163° |
| 2026-04-28 23:38 | 51.13343 | -114.02461 | 3543 ft | 6 kts | 180° |
| 2026-04-28 23:38 | 51.13290 | -114.02460 | 3543 ft | 9 kts | 180° |
| 2026-04-28 23:38 | 51.13207 | -114.02462 | 3543 ft | 15 kts | 180° |
| 2026-04-28 23:39 | 51.13113 | -114.02423 | 3543 ft | 13 kts | 155° |
| 2026-04-28 23:39 | 51.13026 | -114.02415 | 3544 ft | 13 kts | 183° |
| 2026-04-28 23:39 | 51.12926 | -114.02417 | 3542 ft | 15 kts | 179° |
| 2026-04-28 23:39 | 51.12816 | -114.02417 | 3541 ft | 16 kts | 181° |
| 2026-04-28 23:40 | 51.12702 | -114.02416 | 3541 ft | 17 kts | 178° |
| 2026-04-28 23:40 | 51.12585 | -114.02415 | 3544 ft | 17 kts | 180° |
| 2026-04-28 23:40 | 51.12465 | -114.02418 | 3544 ft | 17 kts | 181° |
| 2026-04-28 23:40 | 51.12344 | -114.02414 | 3549 ft | 17 kts | 180° |
| 2026-04-28 23:41 | 51.12226 | -114.02415 | 3551 ft | 17 kts | 180° |
| 2026-04-28 23:41 | 51.12106 | -114.02417 | 3549 ft | 18 kts | 180° |
| 2026-04-28 23:41 | 51.11987 | -114.02418 | 3550 ft | 15 kts | 180° |
| 2026-04-28 23:41 | 51.11883 | -114.02417 | 3551 ft | 16 kts | 180° |
| 2026-04-28 23:42 | 51.11775 | -114.02417 | 3553 ft | 16 kts | 180° |
| 2026-04-28 23:42 | 51.11661 | -114.02417 | 3552 ft | 17 kts | 180° |
| 2026-04-28 23:42 | 51.11538 | -114.02417 | 3554 ft | 18 kts | 180° |
| 2026-04-28 23:42 | 51.11408 | -114.02417 | 3556 ft | 19 kts | 179° |
| 2026-04-28 23:43 | 51.11270 | -114.02417 | 3557 ft | 21 kts | 182° |
| 2026-04-28 23:43 | 51.11122 | -114.02417 | 3559 ft | 21 kts | 180° |
| 2026-04-28 23:43 | 51.10975 | -114.02419 | 3560 ft | 21 kts | 180° |
| 2026-04-28 23:43 | 51.10836 | -114.02418 | 3561 ft | 19 kts | 179° |
| 2026-04-28 23:44 | 51.10709 | -114.02449 | 3561 ft | 19 kts | 200° |
| 2026-04-28 23:44 | 51.10584 | -114.02513 | 3560 ft | 19 kts | 194° |
| 2026-04-28 23:44 | 51.10453 | -114.02569 | 3554 ft | 18 kts | 191° |
| 2026-04-28 23:44 | 51.10323 | -114.02575 | 3556 ft | 19 kts | 181° |
| 2026-04-28 23:45 | 51.10197 | -114.02577 | 3558 ft | 18 kts | 180° |
| 2026-04-28 23:45 | 51.10083 | -114.02574 | 3560 ft | 15 kts | 178° |
| 2026-04-28 23:45 | 51.09988 | -114.02577 | 3560 ft | 14 kts | 181° |
| 2026-04-28 23:45 | 51.09907 | -114.02576 | 3561 ft | 0 kts | 179° |
| 2026-04-28 23:47 | 51.09860 | -114.02571 | 3562 ft | 12 kts | 167° |
| 2026-04-28 23:47 | 51.09807 | -114.02473 | 3564 ft | 0 kts | 115° |
| 2026-04-28 23:48 | 51.09806 | -114.02470 | 3564 ft | 1 kts | 115° |
| 2026-04-28 23:48 | 51.09802 | -114.02458 | 3561 ft | 1 kts | 115° |
| 2026-04-28 23:49 | 51.09801 | -114.02455 | 3561 ft | 0 kts | 115° |
| 2026-04-28 23:49 | 51.09792 | -114.02423 | 3562 ft | 6 kts | 115° |
| 2026-04-28 23:49 | 51.09768 | -114.02345 | 3566 ft | 9 kts | 117° |
| 2026-04-28 23:49 | 51.09739 | -114.02253 | 3567 ft | 10 kts | 116° |
| 2026-04-28 23:50 | 51.09732 | -114.02158 | 3568 ft | 7 kts | 55° |
| 2026-04-28 23:50 | 51.09769 | -114.02142 | 3568 ft | 0 kts | 359° |
| 2026-04-28 23:50 | 51.09770 | -114.02142 | 3569 ft | 3 kts | 359° |
| 2026-04-28 23:50 | 51.09995 | -114.02139 | 3567 ft | 65 kts | 1° |
| 2026-04-28 23:51 | 51.10655 | -114.02138 | 3558 ft | 121 kts | 360° |
| 2026-04-28 23:51 | 51.11651 | -114.02146 | 3560 ft | 163 kts | 359° |
| 2026-04-28 23:51 | 51.12875 | -114.02153 | 3839 ft | 183 kts | 358° |
| 2026-04-28 23:51 | 51.14140 | -114.02288 | 4694 ft | 180 kts | 356° |
| 2026-04-28 23:52 | 51.15442 | -114.02432 | 5254 ft | 196 kts | 357° |
| 2026-04-28 23:52 | 51.16842 | -114.02550 | 5910 ft | 208 kts | 357° |
| 2026-04-28 23:52 | 51.18377 | -114.02669 | 6331 ft | 236 kts | 357° |
| 2026-04-28 23:52 | 51.20060 | -114.03208 | 6886 ft | 257 kts | 338° |
| 2026-04-28 23:53 | 51.21515 | -114.04851 | 7843 ft | 260 kts | 310° |
| 2026-04-28 23:53 | 51.22550 | -114.07235 | 8859 ft | 264 kts | 298° |
| 2026-04-28 23:53 | 51.23336 | -114.09910 | 9771 ft | 270 kts | 291° |
| 2026-04-28 23:53 | 51.23994 | -114.12752 | 10553 ft | 279 kts | 289° |
| 2026-04-28 23:54 | 51.24639 | -114.15798 | 10954 ft | 300 kts | 289° |
| 2026-04-28 23:54 | 51.25325 | -114.19017 | 11536 ft | 312 kts | 289° |
| 2026-04-28 23:54 | 51.26057 | -114.22315 | 12327 ft | 317 kts | 291° |
| 2026-04-28 23:54 | 51.26822 | -114.25629 | 13205 ft | 320 kts | 291° |
| 2026-04-28 23:55 | 51.27613 | -114.28962 | 14082 ft | 322 kts | 292° |
| 2026-04-28 23:55 | 51.28422 | -114.32321 | 14817 ft | 326 kts | 292° |
| 2026-04-28 23:55 | 51.29250 | -114.35736 | 15511 ft | 332 kts | 292° |
| 2026-04-28 23:55 | 51.30090 | -114.39198 | 16190 ft | 337 kts | 292° |
| 2026-04-28 23:56 | 51.30942 | -114.42721 | 16890 ft | 342 kts | 292° |
| 2026-04-28 23:56 | 51.31805 | -114.46304 | 17608 ft | 348 kts | 292° |
| 2026-04-28 23:56 | 51.32679 | -114.49942 | 18313 ft | 353 kts | 292° |
| 2026-04-28 23:56 | 51.33561 | -114.53625 | 18965 ft | 357 kts | 292° |
| 2026-04-28 23:57 | 51.34452 | -114.57353 | 19635 ft | 360 kts | 292° |
| 2026-04-28 23:57 | 51.35348 | -114.61110 | 20312 ft | 362 kts | 292° |
| 2026-04-28 23:57 | 51.36278 | -114.64806 | 20908 ft | 365 kts | 297° |
| 2026-04-28 23:57 | 51.37561 | -114.68320 | 21514 ft | 367 kts | 307° |
| 2026-04-28 23:58 | 51.39269 | -114.71343 | 22186 ft | 368 kts | 318° |
| 2026-04-28 23:58 | 51.41244 | -114.73965 | 22798 ft | 369 kts | 323° |
| 2026-04-28 23:58 | 51.43338 | -114.76363 | 23460 ft | 372 kts | 326° |
| 2026-04-28 23:58 | 51.45502 | -114.78662 | 24015 ft | 374 kts | 327° |
| 2026-04-28 23:59 | 51.47689 | -114.80930 | 24525 ft | 376 kts | 327° |
| 2026-04-28 23:59 | 51.49890 | -114.83217 | 25045 ft | 377 kts | 327° |
| 2026-04-28 23:59 | 51.52087 | -114.85529 | 25544 ft | 379 kts | 326° |
| 2026-04-28 23:59 | 51.54288 | -114.87877 | 26043 ft | 381 kts | 326° |
| 2026-04-29 00:00 | 51.56489 | -114.90250 | 26545 ft | 382 kts | 326° |
| 2026-04-29 00:00 | 51.58698 | -114.92647 | 27002 ft | 384 kts | 326° |
| 2026-04-29 00:00 | 51.60912 | -114.95056 | 27474 ft | 386 kts | 326° |
| 2026-04-29 00:00 | 51.63141 | -114.97485 | 27927 ft | 387 kts | 326° |
| 2026-04-29 00:01 | 51.65374 | -114.99921 | 28376 ft | 389 kts | 326° |
| 2026-04-29 00:01 | 51.67621 | -115.02375 | 28817 ft | 391 kts | 326° |
| 2026-04-29 00:01 | 51.69876 | -115.04840 | 29235 ft | 393 kts | 326° |
| 2026-04-29 00:01 | 51.72139 | -115.07317 | 29660 ft | 394 kts | 326° |
| 2026-04-29 00:02 | 51.74417 | -115.09813 | 30078 ft | 396 kts | 326° |
| 2026-04-29 00:02 | 51.76699 | -115.12317 | 30410 ft | 398 kts | 326° |
| 2026-04-29 00:02 | 51.79000 | -115.14845 | 30693 ft | 401 kts | 326° |
| 2026-04-29 00:02 | 51.81315 | -115.17391 | 30945 ft | 404 kts | 326° |
| 2026-04-29 00:03 | 51.83644 | -115.19975 | 31244 ft | 407 kts | 324° |
| 2026-04-29 00:03 | 51.85836 | -115.22875 | 31537 ft | 409 kts | 317° |
| 2026-04-29 00:03 | 51.87811 | -115.26220 | 31820 ft | 412 kts | 313° |
| 2026-04-29 00:03 | 51.89707 | -115.29714 | 32078 ft | 415 kts | 312° |
| 2026-04-29 00:04 | 51.91582 | -115.33290 | 32350 ft | 417 kts | 311° |
| 2026-04-29 00:04 | 51.93436 | -115.36891 | 32750 ft | 416 kts | 311° |
| 2026-04-29 00:04 | 51.95283 | -115.40498 | 33153 ft | 415 kts | 311° |
| 2026-04-29 00:04 | 51.97120 | -115.44090 | 33517 ft | 415 kts | 311° |
| 2026-04-29 00:05 | 51.98948 | -115.47657 | 33753 ft | 417 kts | 311° |
| 2026-04-29 00:05 | 52.00829 | -115.51324 | 34110 ft | 417 kts | 311° |
| 2026-04-29 00:05 | 52.02057 | -115.53717 | 34306 ft | 417 kts | 311° |
| 2026-04-29 00:05 | 52.03918 | -115.57341 | 34582 ft | 417 kts | 311° |
| 2026-04-29 00:06 | 52.05774 | -115.60961 | 34849 ft | 418 kts | 311° |
| 2026-04-29 00:06 | 52.07639 | -115.64599 | 35076 ft | 419 kts | 311° |
| 2026-04-29 00:06 | 52.10106 | -115.69422 | 35415 ft | 420 kts | 311° |
| 2026-04-29 00:06 | 52.11974 | -115.73081 | 35665 ft | 420 kts | 311° |
| 2026-04-29 00:07 | 52.13840 | -115.76741 | 35892 ft | 421 kts | 311° |
| 2026-04-29 00:07 | 52.15106 | -115.79228 | 36038 ft | 422 kts | 311° |
| 2026-04-29 00:07 | 52.16977 | -115.82908 | 36241 ft | 423 kts | 311° |
| 2026-04-29 00:07 | 52.18857 | -115.86612 | 36465 ft | 424 kts | 311° |
| 2026-04-29 00:08 | 52.20736 | -115.90318 | 36704 ft | 425 kts | 310° |
| 2026-04-29 00:08 | 52.22622 | -115.94043 | 36934 ft | 426 kts | 310° |
| 2026-04-29 00:08 | 52.24506 | -115.97769 | 37136 ft | 426 kts | 310° |
| 2026-04-29 00:08 | 52.26395 | -116.01511 | 37379 ft | 427 kts | 310° |
| 2026-04-29 00:09 | 52.28281 | -116.05255 | 37594 ft | 428 kts | 310° |
| 2026-04-29 00:09 | 52.30174 | -116.09015 | 37797 ft | 428 kts | 310° |
| 2026-04-29 00:09 | 52.32063 | -116.12776 | 37997 ft | 429 kts | 310° |
| 2026-04-29 00:09 | 52.33950 | -116.16538 | 38279 ft | 428 kts | 310° |
| 2026-04-29 00:10 | 52.35837 | -116.20306 | 38538 ft | 428 kts | 310° |
| 2026-04-29 00:10 | 52.37720 | -116.24070 | 38728 ft | 428 kts | 310° |
| 2026-04-29 00:10 | 52.39611 | -116.27856 | 38885 ft | 429 kts | 310° |
| 2026-04-29 00:10 | 52.41479 | -116.31602 | 39009 ft | 430 kts | 310° |
| 2026-04-29 00:11 | 52.43393 | -116.35448 | 39199 ft | 430 kts | 310° |
| 2026-04-29 00:11 | 52.45280 | -116.39244 | 39368 ft | 430 kts | 310° |
| 2026-04-29 00:11 | 52.49059 | -116.46862 | 39670 ft | 431 kts | 310° |
| 2026-04-29 00:12 | 52.50950 | -116.50683 | 39829 ft | 431 kts | 310° |
| 2026-04-29 00:12 | 52.52818 | -116.54461 | 39943 ft | 432 kts | 310° |
| 2026-04-29 00:12 | 52.54710 | -116.58296 | 40079 ft | 433 kts | 310° |
| 2026-04-29 00:13 | 52.58530 | -116.66056 | 40125 ft | 440 kts | 310° |
| 2026-04-29 00:13 | 52.62361 | -116.73863 | 40135 ft | 437 kts | 309° |
| 2026-04-29 00:14 | 52.66171 | -116.81653 | 40163 ft | 436 kts | 309° |
| 2026-04-29 00:14 | 52.69975 | -116.89451 | 40151 ft | 437 kts | 309° |
| 2026-04-29 00:15 | 52.73776 | -116.97267 | 40155 ft | 437 kts | 309° |
| 2026-04-29 00:15 | 52.77573 | -117.05100 | 40148 ft | 437 kts | 309° |
| 2026-04-29 00:16 | 52.81369 | -117.12955 | 40147 ft | 437 kts | 309° |
| 2026-04-29 00:16 | 52.85156 | -117.20818 | 40148 ft | 437 kts | 309° |
| 2026-04-29 00:17 | 52.88937 | -117.28692 | 40155 ft | 437 kts | 309° |
| 2026-04-29 00:17 | 52.92712 | -117.36577 | 40149 ft | 437 kts | 309° |
| 2026-04-29 00:18 | 52.96479 | -117.44470 | 40143 ft | 436 kts | 309° |
| 2026-04-29 00:18 | 53.00241 | -117.52378 | 40146 ft | 436 kts | 309° |
| 2026-04-29 00:19 | 53.03997 | -117.60299 | 40148 ft | 436 kts | 309° |
| 2026-04-29 00:19 | 53.07749 | -117.68234 | 40146 ft | 437 kts | 309° |
| 2026-04-29 00:20 | 53.11493 | -117.76181 | 40149 ft | 437 kts | 309° |
| 2026-04-29 00:20 | 53.15240 | -117.84156 | 40146 ft | 437 kts | 309° |
| 2026-04-29 00:21 | 53.18983 | -117.92149 | 40152 ft | 437 kts | 309° |
| 2026-04-29 00:21 | 53.22689 | -118.00087 | 40134 ft | 437 kts | 309° |
| 2026-04-29 00:22 | 53.26422 | -118.08112 | 40153 ft | 438 kts | 308° |
| 2026-04-29 00:22 | 53.30151 | -118.16151 | 40151 ft | 438 kts | 308° |
| 2026-04-29 00:23 | 53.33874 | -118.24203 | 40181 ft | 437 kts | 308° |
| 2026-04-29 00:23 | 53.37589 | -118.32265 | 40182 ft | 438 kts | 308° |
| 2026-04-29 00:24 | 53.41302 | -118.40345 | 40192 ft | 438 kts | 308° |
| 2026-04-29 00:24 | 53.45012 | -118.48446 | 40186 ft | 438 kts | 308° |
| 2026-04-29 00:25 | 53.48713 | -118.56553 | 40200 ft | 438 kts | 308° |
| 2026-04-29 00:25 | 53.52414 | -118.64691 | 40201 ft | 438 kts | 308° |
| 2026-04-29 00:26 | 53.56107 | -118.72835 | 40233 ft | 438 kts | 308° |
| 2026-04-29 00:26 | 53.59796 | -118.80995 | 40236 ft | 438 kts | 308° |
| 2026-04-29 00:27 | 53.63480 | -118.89173 | 40223 ft | 438 kts | 308° |
| 2026-04-29 00:27 | 53.67157 | -118.97359 | 40226 ft | 438 kts | 308° |
| 2026-04-29 00:28 | 53.70832 | -119.05568 | 40213 ft | 438 kts | 308° |
| 2026-04-29 00:28 | 53.74498 | -119.13784 | 40212 ft | 438 kts | 308° |
| 2026-04-29 00:29 | 53.78162 | -119.22022 | 40187 ft | 439 kts | 307° |
| 2026-04-29 00:29 | 53.81825 | -119.30285 | 40188 ft | 439 kts | 307° |
| 2026-04-29 00:30 | 53.85486 | -119.38572 | 40177 ft | 439 kts | 307° |
| 2026-04-29 00:30 | 53.89137 | -119.46865 | 40178 ft | 439 kts | 307° |
| 2026-04-29 00:31 | 53.92780 | -119.55164 | 40166 ft | 439 kts | 307° |
| 2026-04-29 00:31 | 53.96399 | -119.63438 | 40170 ft | 439 kts | 307° |
| 2026-04-29 00:32 | 54.00036 | -119.71783 | 40151 ft | 440 kts | 307° |
| 2026-04-29 00:32 | 54.03668 | -119.80142 | 40156 ft | 440 kts | 307° |
| 2026-04-29 00:33 | 54.07299 | -119.88527 | 40163 ft | 440 kts | 307° |
| 2026-04-29 00:33 | 54.10926 | -119.96930 | 40162 ft | 440 kts | 307° |
| 2026-04-29 00:34 | 54.14546 | -120.05342 | 40159 ft | 440 kts | 307° |
| 2026-04-29 00:34 | 54.18162 | -120.13776 | 40162 ft | 440 kts | 307° |
| 2026-04-29 00:35 | 54.21773 | -120.22228 | 40165 ft | 440 kts | 307° |
| 2026-04-29 00:35 | 54.25375 | -120.30688 | 40165 ft | 441 kts | 307° |
| 2026-04-29 00:36 | 54.28977 | -120.39175 | 40166 ft | 441 kts | 306° |
| 2026-04-29 00:36 | 54.32575 | -120.47683 | 40166 ft | 441 kts | 306° |
| 2026-04-29 00:37 | 54.36170 | -120.56209 | 40167 ft | 441 kts | 306° |
| 2026-04-29 00:37 | 54.39758 | -120.64750 | 40168 ft | 441 kts | 306° |
| 2026-04-29 00:38 | 54.42764 | -120.71931 | 40177 ft | 441 kts | 306° |
| 2026-04-29 00:38 | 54.46339 | -120.80495 | 40175 ft | 441 kts | 306° |
| 2026-04-29 00:39 | 54.49909 | -120.89079 | 40171 ft | 441 kts | 306° |
| 2026-04-29 00:39 | 54.53477 | -120.97685 | 40172 ft | 442 kts | 306° |
| 2026-04-29 00:40 | 54.57038 | -121.06305 | 40173 ft | 441 kts | 306° |
| 2026-04-29 00:40 | 54.60589 | -121.14931 | 40178 ft | 441 kts | 306° |
| 2026-04-29 00:41 | 54.64109 | -121.23511 | 40176 ft | 441 kts | 306° |
| 2026-04-29 00:41 | 54.67647 | -121.32165 | 40182 ft | 441 kts | 306° |
| 2026-04-29 00:42 | 54.71180 | -121.40837 | 40186 ft | 441 kts | 306° |
| 2026-04-29 00:42 | 54.74777 | -121.49429 | 40188 ft | 441 kts | 307° |
| 2026-04-29 00:43 | 54.78489 | -121.57883 | 40181 ft | 441 kts | 307° |
| 2026-04-29 00:43 | 54.81714 | -121.65249 | 40181 ft | 441 kts | 307° |
| 2026-04-29 00:44 | 54.82936 | -121.68063 | 40175 ft | 441 kts | 307° |
| 2026-04-29 00:44 | 54.86546 | -121.76432 | 40181 ft | 441 kts | 307° |
| 2026-04-29 00:45 | 54.90212 | -121.84986 | 40173 ft | 441 kts | 307° |
| 2026-04-29 00:45 | 54.93872 | -121.93558 | 40179 ft | 441 kts | 307° |
| 2026-04-29 00:46 | 54.97526 | -122.02143 | 40172 ft | 441 kts | 307° |
| 2026-04-29 00:46 | 55.01175 | -122.10744 | 40177 ft | 442 kts | 307° |
| 2026-04-29 00:47 | 55.04818 | -122.19363 | 40173 ft | 441 kts | 307° |
| 2026-04-29 00:47 | 55.08457 | -122.28001 | 40171 ft | 442 kts | 306° |
| 2026-04-29 00:48 | 55.12090 | -122.36654 | 40178 ft | 442 kts | 306° |
| 2026-04-29 00:48 | 55.15715 | -122.45318 | 40169 ft | 441 kts | 306° |
| 2026-04-29 00:49 | 55.19304 | -122.53928 | 40163 ft | 441 kts | 306° |
| 2026-04-29 00:49 | 55.22933 | -122.62664 | 40169 ft | 440 kts | 306° |
| 2026-04-29 00:50 | 55.26530 | -122.71354 | 40164 ft | 440 kts | 306° |
| 2026-04-29 00:50 | 55.30097 | -122.79999 | 40166 ft | 440 kts | 306° |
| 2026-04-29 00:51 | 55.33681 | -122.88720 | 40122 ft | 440 kts | 306° |
| 2026-04-29 00:51 | 55.37260 | -122.97459 | 40100 ft | 441 kts | 306° |
| 2026-04-29 00:52 | 55.40834 | -123.06216 | 40098 ft | 441 kts | 306° |
| 2026-04-29 00:52 | 55.44401 | -123.14987 | 40103 ft | 441 kts | 305° |
| 2026-04-29 00:53 | 55.47969 | -123.23788 | 40114 ft | 441 kts | 305° |
| 2026-04-29 00:53 | 55.51527 | -123.32600 | 40134 ft | 441 kts | 305° |
| 2026-04-29 00:54 | 55.55075 | -123.41421 | 40130 ft | 441 kts | 305° |
| 2026-04-29 00:54 | 55.58022 | -123.48769 | 40143 ft | 441 kts | 305° |
| 2026-04-29 00:55 | 55.61560 | -123.57621 | 40124 ft | 441 kts | 305° |
| 2026-04-29 00:55 | 55.65093 | -123.66490 | 40122 ft | 441 kts | 305° |
| 2026-04-29 00:56 | 55.68619 | -123.75376 | 40124 ft | 441 kts | 305° |
| 2026-04-29 00:56 | 55.72138 | -123.84276 | 40110 ft | 441 kts | 305° |
| 2026-04-29 00:57 | 55.75650 | -123.93192 | 40105 ft | 440 kts | 304° |
| 2026-04-29 00:57 | 55.79145 | -124.02095 | 40104 ft | 439 kts | 304° |
| 2026-04-29 00:58 | 55.82625 | -124.10992 | 40094 ft | 438 kts | 304° |
| 2026-04-29 00:58 | 55.86095 | -124.19898 | 40094 ft | 438 kts | 304° |
| 2026-04-29 00:59 | 55.89559 | -124.28819 | 40092 ft | 438 kts | 304° |
| 2026-04-29 00:59 | 55.93018 | -124.37762 | 40094 ft | 438 kts | 304° |
| 2026-04-29 01:00 | 55.96472 | -124.46723 | 40094 ft | 438 kts | 304° |
| 2026-04-29 01:00 | 55.99921 | -124.55705 | 40096 ft | 438 kts | 304° |
| 2026-04-29 01:01 | 56.03359 | -124.64693 | 40094 ft | 438 kts | 304° |
| 2026-04-29 01:01 | 56.06791 | -124.73700 | 40094 ft | 438 kts | 303° |
| 2026-04-29 01:02 | 56.10218 | -124.82729 | 40091 ft | 438 kts | 303° |
| 2026-04-29 01:02 | 56.13615 | -124.91715 | 40100 ft | 438 kts | 303° |
| 2026-04-29 01:03 | 56.17053 | -125.00835 | 40100 ft | 438 kts | 303° |
| 2026-04-29 01:03 | 56.20459 | -125.09902 | 40100 ft | 438 kts | 303° |
| 2026-04-29 01:04 | 56.23858 | -125.18987 | 40107 ft | 438 kts | 303° |
| 2026-04-29 01:04 | 56.27252 | -125.28093 | 40108 ft | 438 kts | 303° |
| 2026-04-29 01:05 | 56.30620 | -125.37159 | 40108 ft | 439 kts | 303° |
| 2026-04-29 01:05 | 56.34003 | -125.46303 | 40107 ft | 439 kts | 303° |
| 2026-04-29 01:06 | 56.37380 | -125.55464 | 40110 ft | 438 kts | 303° |
| 2026-04-29 01:06 | 56.40753 | -125.64648 | 40117 ft | 438 kts | 302° |
| 2026-04-29 01:07 | 56.44111 | -125.73826 | 40117 ft | 438 kts | 302° |
| 2026-04-29 01:07 | 56.47465 | -125.83031 | 40118 ft | 438 kts | 302° |
| 2026-04-29 01:08 | 56.50818 | -125.92266 | 40120 ft | 439 kts | 302° |
| 2026-04-29 01:08 | 56.54159 | -126.01511 | 40120 ft | 438 kts | 302° |
| 2026-04-29 01:09 | 56.57490 | -126.10762 | 40117 ft | 439 kts | 302° |
| 2026-04-29 01:09 | 56.60825 | -126.20050 | 40122 ft | 439 kts | 302° |
| 2026-04-29 01:10 | 56.64150 | -126.29349 | 40122 ft | 439 kts | 302° |
| 2026-04-29 01:10 | 56.67469 | -126.38671 | 40122 ft | 439 kts | 302° |
| 2026-04-29 01:11 | 56.70782 | -126.48013 | 40125 ft | 439 kts | 302° |
| 2026-04-29 01:11 | 56.74086 | -126.57363 | 40123 ft | 439 kts | 302° |
| 2026-04-29 01:12 | 56.77386 | -126.66737 | 40120 ft | 439 kts | 301° |
| 2026-04-29 01:12 | 56.80678 | -126.76127 | 40124 ft | 439 kts | 301° |
| 2026-04-29 01:13 | 56.83962 | -126.85528 | 40125 ft | 439 kts | 301° |
| 2026-04-29 01:13 | 56.87239 | -126.94948 | 40131 ft | 439 kts | 301° |
| 2026-04-29 01:14 | 56.90510 | -127.04383 | 40129 ft | 439 kts | 301° |
| 2026-04-29 01:14 | 56.93776 | -127.13841 | 40124 ft | 439 kts | 301° |
| 2026-04-29 01:15 | 56.97029 | -127.23300 | 40136 ft | 439 kts | 301° |
| 2026-04-29 01:15 | 57.00275 | -127.32778 | 40136 ft | 439 kts | 300° |
| 2026-04-29 01:16 | 57.03513 | -127.42268 | 40140 ft | 439 kts | 300° |
| 2026-04-29 01:16 | 57.06745 | -127.51779 | 40133 ft | 439 kts | 300° |
| 2026-04-29 01:17 | 57.09968 | -127.61302 | 40139 ft | 439 kts | 300° |
| 2026-04-29 01:17 | 57.13187 | -127.70847 | 40142 ft | 439 kts | 300° |
| 2026-04-29 01:18 | 57.16396 | -127.80405 | 40139 ft | 439 kts | 300° |
| 2026-04-29 01:18 | 57.21205 | -127.94790 | 40143 ft | 439 kts | 300° |
| 2026-04-29 01:19 | 57.24403 | -128.04406 | 40138 ft | 439 kts | 300° |
| 2026-04-29 01:19 | 57.27588 | -128.14029 | 40145 ft | 439 kts | 299° |
| 2026-04-29 01:20 | 57.30230 | -128.22039 | 40142 ft | 439 kts | 299° |
| 2026-04-29 01:20 | 57.30696 | -128.23452 | 40139 ft | 439 kts | 299° |
| 2026-04-29 01:21 | 57.33818 | -128.32954 | 40144 ft | 439 kts | 299° |
| 2026-04-29 01:21 | 57.36985 | -128.42634 | 40139 ft | 439 kts | 299° |
| 2026-04-29 01:22 | 57.40145 | -128.52330 | 40145 ft | 439 kts | 299° |
| 2026-04-29 01:22 | 57.43297 | -128.62040 | 40150 ft | 439 kts | 298° |
| 2026-04-29 01:23 | 57.46442 | -128.71771 | 40150 ft | 439 kts | 298° |
| 2026-04-29 01:23 | 57.49579 | -128.81520 | 40151 ft | 439 kts | 298° |
| 2026-04-29 01:24 | 57.52707 | -128.91284 | 40152 ft | 439 kts | 298° |
| 2026-04-29 01:24 | 57.55828 | -129.01062 | 40157 ft | 439 kts | 298° |
| 2026-04-29 01:25 | 57.58938 | -129.10847 | 40158 ft | 439 kts | 297° |
| 2026-04-29 01:25 | 57.62042 | -129.20654 | 40157 ft | 439 kts | 297° |
| 2026-04-29 01:26 | 57.65140 | -129.30479 | 40157 ft | 439 kts | 297° |
| 2026-04-29 01:26 | 57.68230 | -129.40323 | 40156 ft | 439 kts | 297° |
| 2026-04-29 01:27 | 57.71310 | -129.50177 | 40161 ft | 439 kts | 297° |
| 2026-04-29 01:27 | 57.74385 | -129.60051 | 40171 ft | 439 kts | 297° |
| 2026-04-29 01:28 | 57.77454 | -129.69950 | 40169 ft | 440 kts | 297° |
| 2026-04-29 01:28 | 57.80517 | -129.79874 | 40175 ft | 440 kts | 297° |
| 2026-04-29 01:29 | 57.83552 | -129.89745 | 40185 ft | 440 kts | 297° |
| 2026-04-29 01:29 | 57.86600 | -129.99701 | 40181 ft | 440 kts | 296° |
| 2026-04-29 01:30 | 57.89639 | -130.09673 | 40198 ft | 440 kts | 296° |
| 2026-04-29 01:30 | 57.92674 | -130.19669 | 40186 ft | 440 kts | 296° |
| 2026-04-29 01:31 | 57.95705 | -130.29697 | 40186 ft | 441 kts | 296° |
| 2026-04-29 01:31 | 57.98726 | -130.39736 | 40189 ft | 441 kts | 296° |
| 2026-04-29 01:32 | 58.01739 | -130.49795 | 40196 ft | 441 kts | 296° |
| 2026-04-29 01:32 | 58.04746 | -130.59873 | 40202 ft | 441 kts | 296° |
| 2026-04-29 01:33 | 58.07746 | -130.69971 | 40196 ft | 441 kts | 296° |
| 2026-04-29 01:33 | 58.10735 | -130.80080 | 40198 ft | 440 kts | 296° |
| 2026-04-29 01:34 | 58.13717 | -130.90202 | 40198 ft | 440 kts | 295° |
| 2026-04-29 01:34 | 58.16259 | -130.98871 | 40200 ft | 440 kts | 295° |
| 2026-04-29 01:35 | 58.19222 | -131.09015 | 40198 ft | 440 kts | 295° |
| 2026-04-29 01:35 | 58.22181 | -131.19192 | 40191 ft | 440 kts | 295° |
| 2026-04-29 01:36 | 58.25131 | -131.29378 | 40204 ft | 441 kts | 295° |
| 2026-04-29 01:36 | 58.28077 | -131.39597 | 40205 ft | 441 kts | 295° |
| 2026-04-29 01:37 | 58.31010 | -131.49828 | 40202 ft | 440 kts | 294° |
| 2026-04-29 01:37 | 58.33341 | -131.60513 | 40205 ft | 436 kts | 287° |
| 2026-04-29 01:38 | 58.35032 | -131.69547 | 40205 ft | 436 kts | 285° |
| 2026-04-29 01:38 | 58.37011 | -131.80480 | 40206 ft | 437 kts | 285° |
| 2026-04-29 01:39 | 58.38981 | -131.91445 | 40223 ft | 438 kts | 285° |
| 2026-04-29 01:39 | 58.41272 | -132.04207 | 40220 ft | 438 kts | 285° |
| 2026-04-29 01:40 | 58.42919 | -132.13416 | 40232 ft | 438 kts | 285° |
| 2026-04-29 01:40 | 58.44876 | -132.24412 | 40232 ft | 437 kts | 285° |
| 2026-04-29 01:41 | 58.46823 | -132.35419 | 40252 ft | 437 kts | 285° |
| 2026-04-29 01:41 | 58.48760 | -132.46443 | 40272 ft | 438 kts | 284° |
| 2026-04-29 01:42 | 58.50677 | -132.57419 | 40270 ft | 438 kts | 284° |
| 2026-04-29 01:42 | 58.52598 | -132.68480 | 40282 ft | 438 kts | 284° |
| 2026-04-29 01:43 | 58.54510 | -132.79552 | 40290 ft | 438 kts | 284° |
| 2026-04-29 01:43 | 58.56413 | -132.90635 | 40301 ft | 438 kts | 284° |
| 2026-04-29 01:44 | 58.58305 | -133.01730 | 40327 ft | 438 kts | 284° |
| 2026-04-29 01:44 | 58.60186 | -133.12823 | 40306 ft | 438 kts | 283° |
| 2026-04-29 01:45 | 58.62055 | -133.23924 | 40301 ft | 437 kts | 283° |
| 2026-04-29 01:45 | 58.63914 | -133.35034 | 40298 ft | 437 kts | 283° |
| 2026-04-29 01:46 | 58.65767 | -133.46169 | 40309 ft | 438 kts | 283° |
| 2026-04-29 01:46 | 58.67609 | -133.57302 | 40310 ft | 437 kts | 283° |
| 2026-04-29 01:47 | 58.69439 | -133.68445 | 40317 ft | 437 kts | 283° |
| 2026-04-29 01:47 | 58.71264 | -133.79618 | 40300 ft | 438 kts | 283° |
| 2026-04-29 01:48 | 58.73082 | -133.90823 | 40308 ft | 439 kts | 283° |
| 2026-04-29 01:48 | 58.74889 | -134.02032 | 40310 ft | 439 kts | 283° |
| 2026-04-29 01:49 | 58.76687 | -134.13265 | 40314 ft | 439 kts | 283° |
| 2026-04-29 01:49 | 58.78475 | -134.24504 | 40301 ft | 439 kts | 282° |
| 2026-04-29 01:50 | 58.80242 | -134.35686 | 40308 ft | 439 kts | 282° |
| 2026-04-29 01:50 | 58.82022 | -134.47026 | 40299 ft | 440 kts | 282° |
| 2026-04-29 01:51 | 58.83776 | -134.58265 | 40302 ft | 440 kts | 282° |
| 2026-04-29 01:51 | 58.85531 | -134.69583 | 40305 ft | 440 kts | 282° |
| 2026-04-29 01:52 | 58.87275 | -134.80909 | 40298 ft | 440 kts | 282° |
| 2026-04-29 01:52 | 58.89008 | -134.92239 | 40299 ft | 440 kts | 282° |
| 2026-04-29 01:53 | 58.90736 | -135.03603 | 40294 ft | 440 kts | 282° |
| 2026-04-29 01:53 | 58.92452 | -135.15006 | 40295 ft | 442 kts | 282° |
| 2026-04-29 01:54 | 58.94161 | -135.26443 | 40287 ft | 443 kts | 282° |
| 2026-04-29 01:54 | 58.95865 | -135.37916 | 40286 ft | 443 kts | 282° |
| 2026-04-29 01:55 | 58.97556 | -135.49378 | 40288 ft | 443 kts | 281° |
| 2026-04-29 01:55 | 58.99240 | -135.60867 | 40268 ft | 443 kts | 281° |
| 2026-04-29 01:56 | 59.00912 | -135.72366 | 40281 ft | 443 kts | 281° |
| 2026-04-29 01:56 | 59.02575 | -135.83887 | 40265 ft | 443 kts | 281° |
| 2026-04-29 01:57 | 59.04227 | -135.95421 | 40267 ft | 443 kts | 281° |
| 2026-04-29 01:57 | 59.05868 | -136.06962 | 40269 ft | 444 kts | 281° |
| 2026-04-29 01:58 | 59.07500 | -136.18525 | 40282 ft | 444 kts | 281° |
| 2026-04-29 01:58 | 59.09123 | -136.30089 | 40274 ft | 443 kts | 281° |
| 2026-04-29 01:59 | 59.10736 | -136.41643 | 40304 ft | 443 kts | 281° |
| 2026-04-29 01:59 | 59.12418 | -136.53131 | 40381 ft | 439 kts | 282° |